»·PEaware :: SWA1403 KSNA-KLAS

SWA1403 :: KSNA-KLAS

FLIGHT INFORMATION

Flight Status: Arrived
Operator:
Southwest Airlines
More flights by this operator :: More flights under this callsign
Pilot: Luis Carlos C. (28559)
Aircraft: BOEING 737-800
(B738)
More flights by this aircraft type
Origin: KSNA John Wayne-Orange Co
United States
Destination: KLAS McCarran Intl
United States
More flights between these airports :: More routes between these airports
Route: FINZZ2 MISEN KEPEC6
File this flight plan on PilotEdge
Remarks:
Altitude:
(Current/Filed)
27,000ft
Speed:
(Current/Filed)
430kts
Departed: 28-Apr-20 11:38 AM
Arrived: 28-Apr-20 12:25 PM
Distance/Time
Traveled:
837nm/0:47
Distance/Time
To Go:
Arrived

Flight Plot

Page will automatically refresh every two minutes.

Flight plan parsing failed; only flown route is shown


Map Options




Map Legend


Flown Route
Filed Route
Departure Airport
Arrival Airport
Navaid (VOR, NDB)
Fix

Horizontal Profiles

Position Reports

Time Latitude Longitude Heading Altitude Ground
Speed
28-Apr-20 11:02 33.682006 -117.860602 116 64ft 0kts
28-Apr-20 11:03 33.682006 -117.860602 116 64ft 0kts
28-Apr-20 11:04 33.682006 -117.860602 116 64ft 0kts
28-Apr-20 11:05 33.682006 -117.860602 116 64ft 0kts
28-Apr-20 11:06 33.682006 -117.860602 116 64ft 0kts
28-Apr-20 11:07 33.682006 -117.860602 116 64ft 0kts
28-Apr-20 11:08 33.682006 -117.860602 116 64ft 0kts
28-Apr-20 11:09 33.682006 -117.860602 116 64ft 0kts
28-Apr-20 11:10 33.682006 -117.860602 116 64ft 0kts
28-Apr-20 11:11 33.682006 -117.860602 116 64ft 0kts
28-Apr-20 11:12 33.682006 -117.860602 116 64ft 0kts
28-Apr-20 11:13 33.682006 -117.860602 116 64ft 0kts
28-Apr-20 11:14 33.682006 -117.860602 116 64ft 0kts
28-Apr-20 11:15 33.682006 -117.860602 116 64ft 0kts
28-Apr-20 11:17 33.682006 -117.860602 116 64ft 0kts
28-Apr-20 11:18 33.682006 -117.860602 116 64ft 0kts
28-Apr-20 11:19 33.682006 -117.860602 116 64ft 0kts
28-Apr-20 11:20 33.682006 -117.860602 116 64ft 0kts
28-Apr-20 11:21 33.682006 -117.860602 116 64ft 0kts
28-Apr-20 11:22 33.682006 -117.860602 116 64ft 0kts
28-Apr-20 11:23 33.682006 -117.860602 116 64ft 0kts
28-Apr-20 11:24 33.682006 -117.860602 116 64ft 0kts
28-Apr-20 11:25 33.682155 -117.860936 129 64ft 2kts
28-Apr-20 11:26 33.682343 -117.861053 206 64ft 0kts
28-Apr-20 11:27 33.682343 -117.861053 206 64ft 0kts
28-Apr-20 11:28 33.682343 -117.861053 206 64ft 0kts
28-Apr-20 11:29 33.682343 -117.861053 206 64ft 0kts
28-Apr-20 11:30 33.682343 -117.861053 206 64ft 0kts
28-Apr-20 11:31 33.682343 -117.861053 206 64ft 0kts
28-Apr-20 11:31 33.682268 -117.861121 227 64ft 5kts
28-Apr-20 11:33 33.680644 -117.863139 299 64ft 0kts
28-Apr-20 11:34 33.680644 -117.863139 299 64ft 0kts
28-Apr-20 11:34 33.680891 -117.863663 299 64ft 16kts
28-Apr-20 11:35 33.681167 -117.865410 207 64ft 0kts
28-Apr-20 11:36 33.681166 -117.865411 207 64ft 0kts
28-Apr-20 11:38 33.680239 -117.865996 208 64ft 47kts
28-Apr-20 11:38 33.652822 -117.882867 207 1231ft 162kts
28-Apr-20 11:39 33.596595 -117.896132 186 2994ft 254kts
28-Apr-20 11:40 33.533132 -117.941911 225 4855ft 282kts
28-Apr-20 11:41 33.496350 -118.000702 260 6610ft 286kts
28-Apr-20 11:42 33.537925 -118.076781 325 7889ft 298kts
28-Apr-20 11:43 33.583597 -118.119376 343 9620ft 296kts
28-Apr-20 11:44 33.636754 -118.106616 29 11785ft 301kts
28-Apr-20 11:45 33.706306 -118.062199 27 13101ft 352kts
28-Apr-20 11:46 33.793945 -118.010598 26 15643ft 365kts
28-Apr-20 11:47 33.876652 -117.962191 26 16075ft 370kts
28-Apr-20 11:48 33.965051 -117.890737 40 17319ft 403kts
28-Apr-20 11:49 34.053636 -117.810121 37 19370ft 413kts
28-Apr-20 11:50 34.135837 -117.710331 51 21177ft 426kts
28-Apr-20 11:51 34.210196 -117.598526 51 22833ft 437kts
28-Apr-20 11:52 34.287791 -117.482681 50 24338ft 448kts
28-Apr-20 11:53 34.367125 -117.364472 50 25796ft 456kts
28-Apr-20 11:54 34.447075 -117.244471 50 26973ft 460kts
28-Apr-20 11:55 34.526575 -117.124603 50 27053ft 456kts
28-Apr-20 11:56 34.607480 -117.005753 49 27081ft 456kts
28-Apr-20 11:57 34.687964 -116.888955 49 27054ft 456kts
28-Apr-20 11:58 34.768938 -116.770213 49 27001ft 456kts
28-Apr-20 11:59 34.850656 -116.652025 45 26982ft 455kts
28-Apr-20 12:00 34.944883 -116.557000 37 26987ft 432kts
28-Apr-20 12:01 35.036738 -116.467835 37 25966ft 418kts
28-Apr-20 12:02 35.123969 -116.378945 44 24511ft 405kts
28-Apr-20 12:03 35.203418 -116.277686 45 23586ft 403kts
28-Apr-20 12:04 35.282404 -116.177746 45 20340ft 403kts
28-Apr-20 12:05 35.357965 -116.082582 45 19094ft 374kts
28-Apr-20 12:06 35.431652 -115.989891 45 17712ft 379kts
28-Apr-20 12:07 35.504418 -115.898175 45 16216ft 370kts
28-Apr-20 12:08 35.575234 -115.808037 45 14843ft 360kts
28-Apr-20 12:09 35.642985 -115.721540 45 13539ft 342kts
28-Apr-20 12:10 35.706359 -115.640660 45 12838ft 308kts
28-Apr-20 12:11 35.771866 -115.575705 13 12396ft 308kts
28-Apr-20 12:12 35.856989 -115.569726 1 12045ft 306kts
28-Apr-20 12:13 35.942207 -115.565134 3 12340ft 306kts
28-Apr-20 12:14 35.998290 -115.501154 82 12419ft 307kts
28-Apr-20 12:15 36.021311 -115.405125 67 11541ft 288kts
28-Apr-20 12:16 36.026746 -115.308234 96 10422ft 285kts
28-Apr-20 12:17 36.019326 -115.211784 97 9466ft 274kts
28-Apr-20 12:18 36.009882 -115.122889 97 8731ft 254kts
28-Apr-20 12:19 36.000900 -115.037207 95 7406ft 249kts
28-Apr-20 12:20 36.038417 -114.984650 19 6379ft 206kts
28-Apr-20 12:21 36.085990 -114.996779 270 4387ft 207kts
28-Apr-20 12:22 36.073250 -115.054970 275 3576ft 160kts
28-Apr-20 12:23 36.076431 -115.109922 266 2464ft 160kts
28-Apr-20 12:24 36.076600 -115.146227 309 2189ft 22kts
28-Apr-20 12:25 36.077599 -115.146662 294 2189ft 0kts
28-Apr-20 12:26 36.077559 -115.146314 234 2189ft 3kts
28-Apr-20 12:27 36.079730 -115.147369 81 2189ft 1kts
28-Apr-20 12:28 36.079860 -115.147100 56 2189ft 0kts
28-Apr-20 12:29 36.079860 -115.147100 56 2189ft 0kts
28-Apr-20 12:30 36.079860 -115.147100 56 2189ft 0kts
28-Apr-20 12:31 36.079860 -115.147100 56 2189ft 0kts
28-Apr-20 12:32 36.079860 -115.147100 56 2189ft 0kts
28-Apr-20 12:33 36.079860 -115.147100 56 2189ft 0kts
28-Apr-20 12:34 47.623418 -117.540540 27 2386ft 0kts
28-Apr-20 12:35 47.623418 -117.540540 27 2386ft 0kts
28-Apr-20 12:36 47.623418 -117.540540 27 2386ft 0kts
28-Apr-20 12:37 47.623418 -117.540540 27 2358ft 0kts
28-Apr-20 12:38 47.623418 -117.540540 27 2358ft 0kts

Navigation Log

Ident Type
Flight plan parsing failed, navigation log unavailable